createdAt,value
2022-08-11T00:00:37.347Z,11
2022-08-11T00:01:38.362Z,12
2022-08-11T00:02:42.965Z,11
2022-08-11T00:03:44.782Z,11
2022-08-11T00:04:46.605Z,11
2022-08-11T00:05:47.865Z,11
2022-08-11T00:06:49.139Z,10
2022-08-11T00:07:50.681Z,11
2022-08-11T00:08:52.251Z,10
2022-08-11T00:09:54.366Z,10
2022-08-11T00:10:56.817Z,11
2022-08-11T00:11:59.261Z,11
2022-08-11T00:13:01.712Z,13
2022-08-11T00:14:02.726Z,13
2022-08-11T00:15:04.249Z,13
2022-08-11T00:16:05.240Z,15
2022-08-11T00:17:06.806Z,14
2022-08-11T00:18:10.489Z,13
2022-08-11T00:19:11.585Z,13
2022-08-11T00:20:17.664Z,11
2022-08-11T00:22:03.283Z,11
2022-08-11T00:23:07.399Z,11
2022-08-11T00:24:09.204Z,10
2022-08-11T00:25:10.995Z,11
2022-08-11T00:26:12.506Z,11
2022-08-11T00:27:14.730Z,11
2022-08-11T00:28:15.685Z,12
2022-08-11T00:29:17.253Z,13
2022-08-11T00:30:18.814Z,12
2022-08-11T00:31:20.610Z,13
2022-08-11T00:32:21.916Z,13
2022-08-11T00:33:45.981Z,12
2022-08-11T00:34:46.970Z,13
2022-08-11T00:35:57.926Z,12
2022-08-11T00:36:58.944Z,12
2022-08-11T00:37:59.983Z,12
2022-08-11T00:39:01.249Z,11
2022-08-11T00:40:02.478Z,11
2022-08-11T00:41:04.549Z,12
2022-08-11T00:42:05.785Z,12
2022-08-11T00:43:21.091Z,13
2022-08-11T00:44:29.178Z,13
2022-08-11T00:45:31.654Z,13
2022-08-11T00:46:32.929Z,12
2022-08-11T00:47:34.193Z,12
2022-08-11T00:48:35.499Z,12
2022-08-11T00:49:37.285Z,12
2022-08-11T00:50:39.167Z,12
2022-08-11T00:52:06.995Z,13
2022-08-11T00:53:07.970Z,14
2022-08-11T00:54:09.263Z,14
2022-08-11T00:55:10.564Z,14
2022-08-11T00:56:12.620Z,13
2022-08-11T00:57:39.087Z,12
2022-08-11T00:58:41.538Z,12
2022-08-11T00:59:52.188Z,12
2022-08-11T01:00:53.659Z,12
2022-08-11T01:01:54.812Z,12
2022-08-11T01:02:56.131Z,12
2022-08-11T01:03:58.564Z,12
2022-08-11T01:05:00.352Z,13
2022-08-11T01:06:05.484Z,15
2022-08-11T01:07:09.365Z,15
2022-08-11T01:08:10.931Z,16
2022-08-11T01:09:23.237Z,15
2022-08-11T01:10:24.457Z,16
2022-08-11T01:11:27.536Z,17
2022-08-11T01:12:29.857Z,16
2022-08-11T01:13:31.421Z,16
2022-08-11T01:14:35.095Z,15
2022-08-11T01:15:36.827Z,14
2022-08-11T01:16:41.351Z,15
2022-08-11T01:17:42.642Z,16
2022-08-11T01:18:44.447Z,16
2022-08-11T01:20:50.149Z,15
2022-08-11T01:21:51.296Z,12
2022-08-11T01:22:55.681Z,11
2022-08-11T01:23:56.957Z,10
2022-08-11T01:24:58.248Z,10
2022-08-11T01:25:59.243Z,11
2022-08-11T01:27:00.267Z,12
2022-08-11T01:28:01.241Z,13
2022-08-11T01:29:02.888Z,14
2022-08-11T01:30:04.431Z,14
2022-08-11T01:31:06.214Z,12
2022-08-11T01:32:08.864Z,13
2022-08-11T01:33:10.407Z,13
2022-08-11T01:34:11.680Z,14
2022-08-11T01:35:13.272Z,16
2022-08-11T01:36:15.369Z,16
2022-08-11T01:37:16.665Z,15
2022-08-11T01:38:17.938Z,15
2022-08-11T01:39:19.511Z,13
2022-08-11T01:40:20.803Z,12
2022-08-11T01:41:22.221Z,13
2022-08-11T01:42:23.493Z,13
2022-08-11T01:43:25.295Z,12
2022-08-11T01:44:26.541Z,11
2022-08-11T01:45:28.531Z,10
2022-08-11T01:46:30.325Z,10
2022-08-11T01:47:31.901Z,11
2022-08-11T01:48:32.887Z,11
2022-08-11T01:50:11.294Z,11
2022-08-11T01:51:17.772Z,11
2022-08-11T01:52:18.781Z,10
2022-08-11T01:53:36.159Z,11
2022-08-11T01:54:41.512Z,11
2022-08-11T01:55:43.847Z,12
2022-08-11T01:56:45.694Z,13
2022-08-11T01:57:47.537Z,14
2022-08-11T01:58:49.409Z,13
2022-08-11T01:59:50.983Z,13
2022-08-11T02:00:53.825Z,13
2022-08-11T02:01:55.175Z,13
2022-08-11T02:02:57.008Z,14
2022-08-11T02:03:58.279Z,14
2022-08-11T02:04:59.265Z,12
2022-08-11T02:06:00.559Z,13
2022-08-11T02:07:02.228Z,13
2022-08-11T02:08:03.791Z,12
2022-08-11T02:09:18.935Z,14
2022-08-11T02:10:38.363Z,13
2022-08-11T02:11:44.941Z,13
2022-08-11T02:12:53.172Z,13
2022-08-11T02:13:54.134Z,12
2022-08-11T02:15:06.175Z,12
2022-08-11T02:16:07.969Z,12
2022-08-11T02:17:09.767Z,12
2022-08-11T02:18:11.616Z,11
2022-08-11T02:19:13.451Z,11
2022-08-11T02:20:15.270Z,11
2022-08-11T02:21:18.437Z,11
2022-08-11T02:22:19.942Z,11
2022-08-11T02:24:08.273Z,11
2022-08-11T02:25:09.247Z,11
2022-08-11T02:26:10.800Z,11
2022-08-11T02:27:13.142Z,12
2022-08-11T02:28:14.397Z,12
2022-08-11T02:29:15.687Z,13
2022-08-11T02:30:16.960Z,13
2022-08-11T02:32:31.439Z,13
2022-08-11T02:33:37.000Z,13
2022-08-11T02:34:42.041Z,15
2022-08-11T02:35:43.427Z,15
2022-08-11T02:36:44.942Z,14
2022-08-11T02:37:46.229Z,14
2022-08-11T02:38:47.529Z,12
2022-08-11T02:39:51.571Z,12
2022-08-11T02:40:53.047Z,12
2022-08-11T02:41:54.323Z,13
2022-08-11T02:42:56.207Z,13
2022-08-11T02:43:57.206Z,14
2022-08-11T02:44:58.468Z,14
2022-08-11T02:46:00.386Z,14
2022-08-11T02:47:01.612Z,13
2022-08-11T02:48:03.546Z,15
2022-08-11T02:49:04.549Z,14
2022-08-11T02:50:08.467Z,13
2022-08-11T02:51:09.457Z,14
2022-08-11T02:52:10.685Z,12
2022-08-11T02:53:11.666Z,13
2022-08-11T02:54:12.945Z,12
2022-08-11T02:55:58.555Z,13
2022-08-11T02:57:00.089Z,13
2022-08-11T02:58:01.986Z,13
2022-08-11T02:59:03.267Z,13
2022-08-11T03:00:04.267Z,13
2022-08-11T03:01:05.263Z,12
2022-08-11T03:02:06.482Z,13
2022-08-11T03:03:08.439Z,14
2022-08-11T03:04:10.517Z,14
2022-08-11T03:05:12.146Z,14
2022-08-11T03:06:13.275Z,14
2022-08-11T03:07:30.179Z,13
2022-08-11T03:08:31.425Z,13
2022-08-11T03:09:32.429Z,14
2022-08-11T03:10:33.694Z,14
2022-08-11T03:11:37.939Z,14
2022-08-11T03:12:39.588Z,14
2022-08-11T03:13:40.921Z,13
2022-08-11T03:14:42.431Z,13
2022-08-11T03:15:45.313Z,12
2022-08-11T03:16:46.606Z,12
2022-08-11T03:17:53.381Z,12
2022-08-11T03:18:54.626Z,13
2022-08-11T03:19:55.643Z,13
2022-08-11T03:20:57.184Z,14
2022-08-11T03:22:06.748Z,13
2022-08-11T03:23:20.955Z,14
2022-08-11T03:24:22.224Z,13
2022-08-11T03:25:23.737Z,13
2022-08-11T03:26:24.731Z,14
2022-08-11T03:27:25.979Z,12
2022-08-11T03:28:27.487Z,12
2022-08-11T03:29:28.536Z,12
2022-08-11T03:30:30.693Z,12
2022-08-11T03:31:31.704Z,13
2022-08-11T03:32:33.268Z,13
2022-08-11T03:33:34.963Z,12
2022-08-11T03:34:36.225Z,12
2022-08-11T03:35:37.505Z,12
2022-08-11T03:37:18.603Z,13
2022-08-11T03:38:31.059Z,14
2022-08-11T03:39:32.220Z,14
2022-08-11T03:40:33.297Z,14
2022-08-11T03:42:10.208Z,14
2022-08-11T03:43:12.698Z,14
2022-08-11T03:44:15.652Z,13
2022-08-11T03:45:17.233Z,14
2022-08-11T03:46:22.826Z,14
2022-08-11T03:47:24.377Z,13
2022-08-11T03:48:25.343Z,15
2022-08-11T03:49:26.628Z,14
2022-08-11T03:50:28.195Z,14
2022-08-11T03:51:52.582Z,15
2022-08-11T03:52:53.805Z,13
2022-08-11T03:53:55.027Z,14
2022-08-11T03:54:57.109Z,16
2022-08-11T03:55:58.138Z,15
2022-08-11T03:57:01.286Z,15
2022-08-11T03:58:03.236Z,14
2022-08-11T03:59:04.988Z,13
2022-08-11T04:00:06.342Z,14
2022-08-11T04:01:07.947Z,13
2022-08-11T04:02:09.662Z,13
2022-08-11T04:03:10.671Z,13
2022-08-11T04:04:11.728Z,12
2022-08-11T04:05:13.299Z,12
2022-08-11T04:06:14.567Z,11
2022-08-11T04:07:18.206Z,12
2022-08-11T04:08:19.230Z,13
2022-08-11T04:09:20.747Z,13
2022-08-11T04:10:22.297Z,15
2022-08-11T04:11:23.291Z,16
2022-08-11T04:12:37.539Z,17
2022-08-11T04:13:38.519Z,16
2022-08-11T04:14:39.518Z,16
2022-08-11T04:15:40.595Z,15
2022-08-11T04:16:41.591Z,14
2022-08-11T04:17:43.154Z,14
2022-08-11T04:18:44.939Z,13
2022-08-11T04:19:46.469Z,14
2022-08-11T04:20:47.727Z,14
2022-08-11T04:21:49.369Z,15
2022-08-11T04:22:50.867Z,15
2022-08-11T04:24:40.054Z,15
2022-08-11T04:25:59.683Z,14
2022-08-11T04:27:05.220Z,15
2022-08-11T04:28:31.654Z,15
2022-08-11T04:30:12.041Z,14
2022-08-11T04:31:53.124Z,15
2022-08-11T04:32:54.367Z,15
2022-08-11T04:33:57.535Z,15
2022-08-11T04:34:59.232Z,15
2022-08-11T04:36:00.759Z,15
2022-08-11T04:37:01.766Z,14
2022-08-11T04:38:04.269Z,15
2022-08-11T04:39:05.267Z,14
2022-08-11T04:40:06.495Z,14
2022-08-11T04:41:07.879Z,13
2022-08-11T04:42:09.575Z,12
2022-08-11T04:43:11.109Z,14
2022-08-11T04:44:12.392Z,15
2022-08-11T04:45:14.112Z,15
2022-08-11T04:46:16.187Z,15
2022-08-11T04:47:18.321Z,14
2022-08-11T04:48:19.859Z,14
2022-08-11T04:49:34.455Z,14
2022-08-11T04:50:35.751Z,14
2022-08-11T04:51:37.306Z,14
2022-08-11T04:52:39.298Z,12
2022-08-11T04:53:42.016Z,14
2022-08-11T04:54:43.518Z,14
2022-08-11T04:55:44.544Z,15
2022-08-11T04:56:45.965Z,16
2022-08-11T04:57:47.475Z,14
2022-08-11T04:58:49.095Z,14
2022-08-11T04:59:50.658Z,14
2022-08-11T05:00:57.558Z,15
2022-08-11T05:01:59.301Z,14
2022-08-11T05:03:00.883Z,15
2022-08-11T05:04:02.150Z,17
2022-08-11T05:05:03.772Z,16
2022-08-11T05:06:05.321Z,18
2022-08-11T05:07:07.100Z,17
2022-08-11T05:08:08.113Z,16
2022-08-11T05:09:09.101Z,16
2022-08-11T05:10:10.380Z,15
2022-08-11T05:11:12.438Z,15
2022-08-11T05:12:13.981Z,15
2022-08-11T05:13:15.554Z,16
2022-08-11T05:14:17.385Z,16
2022-08-11T05:15:23.885Z,16
2022-08-11T05:16:25.703Z,17
2022-08-11T05:17:27.187Z,15
2022-08-11T05:18:28.795Z,14
2022-08-11T05:19:30.027Z,14
2022-08-11T05:20:31.263Z,14
2022-08-11T05:21:45.815Z,15
2022-08-11T05:22:47.132Z,16
2022-08-11T05:23:48.409Z,17
2022-08-11T05:24:49.407Z,16
2022-08-11T05:26:50.038Z,16
2022-08-11T05:27:52.290Z,15
2022-08-11T05:28:53.804Z,14
2022-08-11T05:29:54.820Z,14
2022-08-11T05:30:56.101Z,15
2022-08-11T05:31:57.374Z,15
2022-08-11T05:33:02.895Z,15
2022-08-11T05:34:04.422Z,14
2022-08-11T05:35:05.989Z,12
2022-08-11T05:36:08.081Z,12
2022-08-11T05:37:27.948Z,11
2022-08-11T05:38:29.312Z,12
2022-08-11T05:39:37.566Z,13
2022-08-11T05:40:38.792Z,12
2022-08-11T05:41:41.194Z,12
2022-08-11T05:42:43.660Z,12
2022-08-11T05:44:22.733Z,12
2022-08-11T05:45:24.118Z,12
2022-08-11T05:46:25.168Z,12
2022-08-11T05:47:26.422Z,13
2022-08-11T05:48:28.199Z,12
2022-08-11T05:49:33.121Z,12
2022-08-11T05:50:38.429Z,12
2022-08-11T05:52:05.155Z,13
2022-08-11T05:53:17.546Z,12
2022-08-11T05:54:29.979Z,13
2022-08-11T05:55:31.501Z,13
2022-08-11T05:56:33.089Z,12
2022-08-11T05:57:52.585Z,12
2022-08-11T05:58:54.686Z,12
2022-08-11T05:59:56.235Z,11
2022-08-11T06:00:57.787Z,12
2022-08-11T06:01:59.888Z,11
2022-08-11T06:03:01.441Z,11
2022-08-11T06:04:02.983Z,11
2022-08-11T06:05:04.602Z,11
2022-08-11T06:06:06.391Z,10
2022-08-11T06:07:08.469Z,10
2022-08-11T06:08:09.746Z,10
2022-08-11T06:09:11.287Z,11
2022-08-11T06:10:13.377Z,13
2022-08-11T06:11:14.935Z,13
2022-08-11T06:12:17.333Z,13
2022-08-11T06:13:19.108Z,15
2022-08-11T06:14:20.603Z,14
2022-08-11T06:15:21.997Z,15
2022-08-11T06:16:23.766Z,16
2022-08-11T06:17:24.857Z,15
2022-08-11T06:18:26.065Z,15
2022-08-11T06:19:27.678Z,13
2022-08-11T06:20:30.281Z,12
2022-08-11T06:21:32.387Z,12
2022-08-11T06:22:33.781Z,12
2022-08-11T06:23:37.054Z,12
2022-08-11T06:24:39.126Z,13
2022-08-11T06:25:41.188Z,15
2022-08-11T06:27:13.798Z,17
2022-08-11T06:28:21.962Z,17
2022-08-11T06:29:57.845Z,15
2022-08-11T06:30:59.920Z,14
2022-08-11T06:32:01.214Z,12
2022-08-11T06:33:02.448Z,11
2022-08-11T06:34:04.430Z,11
2022-08-11T06:35:06.171Z,11
2022-08-11T06:36:07.693Z,12
2022-08-11T06:37:09.405Z,12
2022-08-11T06:38:10.400Z,12
2022-08-11T06:39:11.930Z,12
2022-08-11T06:40:13.897Z,13
2022-08-11T06:41:15.173Z,13
2022-08-11T06:42:16.720Z,12
2022-08-11T06:43:17.766Z,11
2022-08-11T06:44:19.547Z,10
2022-08-11T06:45:21.978Z,10
2022-08-11T06:46:28.874Z,12
2022-08-11T06:47:30.148Z,16
2022-08-11T06:48:31.143Z,17
2022-08-11T06:49:32.453Z,18
2022-08-11T06:50:33.445Z,21
2022-08-11T06:51:36.705Z,18
2022-08-11T06:52:43.401Z,20
2022-08-11T06:54:06.101Z,22
2022-08-11T06:55:07.147Z,21
2022-08-11T06:57:31.295Z,25
2022-08-11T06:58:32.951Z,24
2022-08-11T06:59:34.471Z,23
2022-08-11T07:00:35.708Z,21
2022-08-11T07:01:37.500Z,16
2022-08-11T07:02:38.694Z,16
2022-08-11T07:03:40.451Z,16
2022-08-11T07:04:41.970Z,20
2022-08-11T07:05:43.224Z,22
2022-08-11T07:06:51.715Z,21
2022-08-11T07:07:53.513Z,18
2022-08-11T07:08:54.717Z,17
2022-08-11T07:09:56.020Z,14
2022-08-11T07:10:58.907Z,14
2022-08-11T07:11:59.901Z,15
2022-08-11T07:13:02.370Z,13
2022-08-11T07:14:04.330Z,17
2022-08-11T07:15:05.338Z,27
2022-08-11T07:16:14.371Z,31
2022-08-11T07:17:15.345Z,30
2022-08-11T07:18:16.875Z,26
2022-08-11T07:19:18.381Z,17
2022-08-11T07:20:19.615Z,14
2022-08-11T07:22:04.459Z,14
2022-08-11T07:23:05.709Z,15
2022-08-11T07:24:06.733Z,14
2022-08-11T07:25:08.024Z,13
2022-08-11T07:26:09.852Z,13
2022-08-11T07:27:11.169Z,12
2022-08-11T07:28:12.964Z,12
2022-08-11T07:29:14.486Z,12
2022-08-11T07:30:16.012Z,12
2022-08-11T07:31:18.187Z,12
2022-08-11T07:32:19.435Z,13
2022-08-11T07:34:17.541Z,13
2022-08-11T07:35:19.702Z,12
2022-08-11T07:36:29.489Z,12
2022-08-11T07:37:30.799Z,12
2022-08-11T07:38:33.086Z,12
2022-08-11T07:39:36.531Z,14
2022-08-11T07:40:38.182Z,16
2022-08-11T07:41:39.714Z,16
2022-08-11T07:42:40.999Z,17
2022-08-11T07:43:42.817Z,17
2022-08-11T07:44:44.600Z,16
2022-08-11T07:45:45.606Z,16
2022-08-11T07:46:47.954Z,14
2022-08-11T07:47:50.049Z,13
2022-08-11T07:48:51.601Z,12
2022-08-11T07:49:53.403Z,11
2022-08-11T07:50:56.996Z,10
2022-08-11T07:51:58.806Z,9
2022-08-11T07:53:00.593Z,10
2022-08-11T07:54:17.766Z,10
2022-08-11T07:55:53.727Z,11
2022-08-11T07:58:15.707Z,11
2022-08-11T08:00:05.207Z,9
2022-08-11T08:01:23.179Z,9
2022-08-11T08:02:29.748Z,9
2022-08-11T08:03:32.403Z,9
2022-08-11T08:04:33.673Z,9
2022-08-11T08:05:34.679Z,9
2022-08-11T08:06:37.069Z,8
2022-08-11T08:07:40.042Z,9
2022-08-11T08:08:42.140Z,9
2022-08-11T08:09:43.146Z,8
2022-08-11T08:10:44.159Z,8
2022-08-11T08:11:46.166Z,8
2022-08-11T08:12:47.713Z,7
2022-08-11T08:13:51.224Z,7
2022-08-11T08:14:52.539Z,7
2022-08-11T08:15:53.531Z,6
2022-08-11T08:16:56.187Z,7
2022-08-11T08:18:28.086Z,7
2022-08-11T08:19:30.762Z,8
2022-08-11T08:20:31.999Z,8
2022-08-11T08:21:33.967Z,8
2022-08-11T08:22:42.866Z,8
2022-08-11T08:23:56.887Z,8
2022-08-11T08:24:58.940Z,9
2022-08-11T08:26:00.511Z,8
2022-08-11T08:27:02.335Z,10
2022-08-11T08:28:04.120Z,10
2022-08-11T08:29:06.187Z,10
2022-08-11T08:30:07.529Z,9
2022-08-11T08:31:09.150Z,8
2022-08-11T08:32:10.136Z,10
2022-08-11T08:33:11.416Z,11
2022-08-11T08:34:12.689Z,13
2022-08-11T08:35:14.262Z,12
2022-08-11T08:36:15.614Z,12
2022-08-11T08:37:47.958Z,11
2022-08-11T08:38:50.008Z,12
2022-08-11T08:39:52.013Z,12
2022-08-11T08:40:56.998Z,12
2022-08-11T08:41:58.324Z,12
2022-08-11T08:42:59.604Z,14
2022-08-11T08:44:41.118Z,17
2022-08-11T08:45:50.775Z,20
2022-08-11T08:46:53.644Z,22
2022-08-11T08:47:54.650Z,21
2022-08-11T08:48:55.655Z,18
2022-08-11T08:49:56.648Z,14
2022-08-11T08:50:58.226Z,11
2022-08-11T08:52:43.989Z,9
2022-08-11T08:53:57.199Z,9
2022-08-11T08:55:00.460Z,8
2022-08-11T08:56:02.248Z,8
2022-08-11T08:57:03.266Z,8
2022-08-11T08:58:04.812Z,7
2022-08-11T08:59:06.094Z,7
2022-08-11T09:00:14.428Z,7
2022-08-11T09:01:25.059Z,7
2022-08-11T09:02:35.443Z,7
2022-08-11T09:04:12.835Z,6
2022-08-11T09:05:22.111Z,7
2022-08-11T09:06:23.910Z,8
2022-08-11T09:07:24.924Z,9
2022-08-11T09:08:26.447Z,11
2022-08-11T09:09:28.051Z,12
2022-08-11T09:10:29.123Z,11
2022-08-11T09:11:30.999Z,11
2022-08-11T09:12:39.619Z,10
2022-08-11T09:13:41.239Z,8
2022-08-11T09:14:42.274Z,8
2022-08-11T09:15:43.519Z,7
2022-08-11T09:16:44.788Z,6
2022-08-11T09:17:46.078Z,7
2022-08-11T09:18:55.620Z,8
2022-08-11T09:19:59.724Z,8
2022-08-11T09:21:05.502Z,9
2022-08-11T09:22:06.768Z,8
2022-08-11T09:24:12.996Z,8
2022-08-11T09:25:27.874Z,12
2022-08-11T09:26:31.834Z,17
2022-08-11T09:27:33.486Z,23
2022-08-11T09:28:35.756Z,26
2022-08-11T09:29:37.866Z,23
2022-08-11T09:30:41.769Z,19
2022-08-11T09:31:43.342Z,14
2022-08-11T09:32:44.373Z,12
2022-08-11T09:33:45.468Z,10
2022-08-11T09:34:46.820Z,8
2022-08-11T09:35:48.268Z,8
2022-08-11T09:36:50.088Z,7
2022-08-11T09:37:56.944Z,7
2022-08-11T09:39:00.686Z,8
2022-08-11T09:40:04.344Z,8
2022-08-11T09:41:06.134Z,8
2022-08-11T09:42:16.793Z,8
2022-08-11T09:43:30.020Z,8
2022-08-11T09:44:31.313Z,7
2022-08-11T09:45:40.924Z,6
2022-08-11T09:46:41.943Z,7
2022-08-11T09:47:45.939Z,8
2022-08-11T09:48:47.487Z,8
2022-08-11T09:49:49.096Z,9
2022-08-11T09:50:50.347Z,8
2022-08-11T09:52:05.997Z,7
2022-08-11T09:53:41.648Z,8
2022-08-11T09:55:05.162Z,11
2022-08-11T09:56:06.881Z,12
2022-08-11T09:57:08.176Z,12
2022-08-11T09:58:10.031Z,12
2022-08-11T09:59:42.872Z,10
2022-08-11T10:00:46.360Z,11
2022-08-11T10:01:48.504Z,12
2022-08-11T10:02:49.768Z,12
2022-08-11T10:03:50.780Z,13
2022-08-11T10:04:52.050Z,11
2022-08-11T10:05:53.060Z,12
2022-08-11T10:06:56.081Z,11
2022-08-11T10:07:57.072Z,10
2022-08-11T10:08:58.591Z,9
2022-08-11T10:10:00.450Z,8
2022-08-11T10:11:02.702Z,9
2022-08-11T10:12:04.488Z,9
2022-08-11T10:14:35.213Z,8
2022-08-11T10:15:36.380Z,8
2022-08-11T10:16:38.067Z,7
2022-08-11T10:17:40.640Z,7
2022-08-11T10:18:41.926Z,8
2022-08-11T10:19:43.206Z,8
2022-08-11T10:21:02.501Z,8
2022-08-11T10:22:04.060Z,8
2022-08-11T10:23:06.117Z,7
2022-08-11T10:24:07.400Z,9
2022-08-11T10:25:08.482Z,9
2022-08-11T10:26:09.953Z,10
2022-08-11T10:27:11.708Z,11
2022-08-11T10:29:12.386Z,10
2022-08-11T10:30:17.010Z,11
2022-08-11T10:31:18.902Z,10
2022-08-11T10:32:31.347Z,10
2022-08-11T10:33:48.377Z,9
2022-08-11T10:35:01.550Z,8
2022-08-11T10:36:02.519Z,7
2022-08-11T10:37:16.663Z,8
2022-08-11T10:38:18.189Z,8
2022-08-11T10:39:20.375Z,9
2022-08-11T10:40:21.892Z,9
2022-08-11T10:41:23.163Z,8
2022-08-11T10:42:58.409Z,11
2022-08-11T10:44:04.402Z,13
2022-08-11T10:45:06.209Z,12
2022-08-11T10:46:07.470Z,15
2022-08-11T10:47:09.231Z,13
2022-08-11T10:48:16.026Z,13
2022-08-11T10:49:17.305Z,15
2022-08-11T10:50:18.873Z,14
2022-08-11T10:51:54.271Z,18
2022-08-11T10:53:00.236Z,19
2022-08-11T10:54:01.793Z,19
2022-08-11T10:55:04.012Z,19
2022-08-11T10:56:06.127Z,15
2022-08-11T10:57:07.258Z,13
2022-08-11T10:58:08.511Z,11
2022-08-11T10:59:09.838Z,11
2022-08-11T11:00:11.140Z,11
2022-08-11T11:01:12.791Z,11
2022-08-11T11:02:14.845Z,10
2022-08-11T11:03:24.291Z,11
2022-08-11T11:04:28.339Z,10
2022-08-11T11:05:34.878Z,10
2022-08-11T11:06:36.775Z,10
2022-08-11T11:07:44.995Z,10
2022-08-11T11:09:53.567Z,11
2022-08-11T11:10:55.109Z,12
2022-08-11T11:11:56.656Z,11
2022-08-11T11:12:58.446Z,10
2022-08-11T11:14:03.791Z,10
2022-08-11T11:15:18.217Z,10
2022-08-11T11:16:19.540Z,11
2022-08-11T11:17:20.762Z,12
2022-08-11T11:18:21.751Z,12
2022-08-11T11:19:24.031Z,12
2022-08-11T11:20:46.667Z,12
2022-08-11T11:21:49.603Z,11
2022-08-11T11:22:51.425Z,12
2022-08-11T11:23:53.226Z,12
2022-08-11T11:24:54.765Z,13
2022-08-11T11:25:58.439Z,13
2022-08-11T11:27:00.749Z,13
2022-08-11T11:28:02.050Z,13
2022-08-11T11:29:03.039Z,12
2022-08-11T11:30:04.283Z,11
2022-08-11T11:31:05.270Z,12
2022-08-11T11:32:06.857Z,13
2022-08-11T11:33:09.170Z,13
2022-08-11T11:34:13.337Z,14
2022-08-11T11:35:15.333Z,13
2022-08-11T11:36:16.550Z,15
2022-08-11T11:37:18.393Z,18
2022-08-11T11:38:19.922Z,20
2022-08-11T11:39:21.372Z,20
2022-08-11T11:40:32.586Z,20
2022-08-11T11:41:34.008Z,17
2022-08-11T11:42:35.333Z,16
2022-08-11T11:43:36.606Z,17
2022-08-11T11:44:40.238Z,17
2022-08-11T11:45:42.648Z,18
2022-08-11T11:46:43.935Z,19
2022-08-11T11:47:45.222Z,20
2022-08-11T11:48:46.511Z,19
2022-08-11T11:49:48.820Z,19
2022-08-11T11:50:50.338Z,19
2022-08-11T11:51:59.421Z,18
2022-08-11T11:53:00.704Z,17
2022-08-11T11:54:02.273Z,17
2022-08-11T11:55:03.555Z,16
2022-08-11T11:56:04.815Z,17
2022-08-11T11:57:05.825Z,19
2022-08-11T11:58:07.395Z,21
2022-08-11T11:59:19.579Z,21
2022-08-11T12:00:20.815Z,21
2022-08-11T12:01:22.112Z,22
2022-08-11T12:02:23.098Z,20
2022-08-11T12:03:24.539Z,20
2022-08-11T12:04:25.728Z,19
2022-08-11T12:05:26.949Z,18
2022-08-11T12:06:28.521Z,18
2022-08-11T12:07:30.386Z,20
2022-08-11T12:08:31.937Z,23
2022-08-11T12:09:32.935Z,24
2022-08-11T12:10:34.183Z,25
2022-08-11T12:11:36.201Z,24
2022-08-11T12:12:37.285Z,23
2022-08-11T12:13:38.860Z,22
2022-08-11T12:14:40.128Z,22
2022-08-11T12:16:37.009Z,23
2022-08-11T12:17:39.582Z,24
2022-08-11T12:18:43.068Z,25
2022-08-11T12:19:49.383Z,28
2022-08-11T12:20:51.634Z,28
2022-08-11T12:22:01.653Z,29
2022-08-11T12:23:02.877Z,28
2022-08-11T12:24:05.409Z,25
2022-08-11T12:25:06.678Z,25
2022-08-11T12:26:28.355Z,25
2022-08-11T12:27:30.485Z,25
2022-08-11T12:28:32.150Z,25
2022-08-11T12:29:33.456Z,24
2022-08-11T12:30:36.159Z,23
2022-08-11T12:31:37.867Z,22
2022-08-11T12:32:40.289Z,21
2022-08-11T12:33:42.765Z,19
2022-08-11T12:34:44.187Z,17
2022-08-11T12:36:01.742Z,15
2022-08-11T12:37:03.543Z,14
2022-08-11T12:38:13.588Z,14
2022-08-11T12:41:14.718Z,14
2022-08-11T12:42:20.406Z,14
2022-08-11T12:43:40.133Z,13
2022-08-11T12:44:41.458Z,12
2022-08-11T12:45:43.071Z,12
2022-08-11T12:46:44.875Z,11
2022-08-11T12:49:03.619Z,11
2022-08-11T12:50:23.995Z,12
2022-08-11T12:51:25.284Z,11
2022-08-11T12:52:26.592Z,13
2022-08-11T12:53:31.113Z,13
2022-08-11T12:54:32.624Z,13
2022-08-11T12:55:34.709Z,13
2022-08-11T12:56:36.874Z,12
2022-08-11T12:57:39.739Z,12
2022-08-11T12:58:41.466Z,11
2022-08-11T12:59:43.026Z,11
2022-08-11T13:00:45.233Z,10
2022-08-11T13:01:47.201Z,9
2022-08-11T13:02:48.439Z,9
2022-08-11T13:03:57.518Z,9
2022-08-11T13:05:03.200Z,9
2022-08-11T13:06:05.811Z,9
2022-08-11T13:07:07.409Z,9
2022-08-11T13:08:08.683Z,10
2022-08-11T13:09:09.987Z,10
2022-08-11T13:10:17.951Z,11
2022-08-11T13:11:19.506Z,10
2022-08-11T13:12:21.117Z,10
2022-08-11T13:13:58.090Z,10
2022-08-11T13:14:59.875Z,11
2022-08-11T13:16:02.876Z,11
2022-08-11T13:17:04.427Z,10
2022-08-11T13:18:05.964Z,10
2022-08-11T13:19:07.515Z,10
2022-08-11T13:20:08.798Z,11
2022-08-11T13:21:09.769Z,12
2022-08-11T13:22:11.041Z,11
2022-08-11T13:23:12.090Z,11
2022-08-11T13:24:13.672Z,10
2022-08-11T13:25:15.686Z,9
2022-08-11T13:26:16.691Z,10
2022-08-11T13:27:44.110Z,10
2022-08-11T13:28:46.071Z,11
2022-08-11T13:29:47.353Z,11
2022-08-11T13:30:48.382Z,10
2022-08-11T13:31:49.377Z,9
2022-08-11T13:32:50.396Z,8
2022-08-11T13:33:52.593Z,7
2022-08-11T13:34:53.728Z,7
2022-08-11T13:35:54.721Z,7
2022-08-11T13:36:56.006Z,7
2022-08-11T13:38:28.289Z,8
2022-08-11T13:39:31.125Z,7
2022-08-11T13:40:56.620Z,8
2022-08-11T13:41:57.670Z,8
2022-08-11T13:42:58.628Z,8
2022-08-11T13:44:03.629Z,9
2022-08-11T13:45:04.663Z,8
2022-08-11T13:46:05.944Z,7
2022-08-11T13:47:07.737Z,7
2022-08-11T13:48:09.296Z,7
2022-08-11T13:49:10.587Z,7
2022-08-11T13:50:14.471Z,7
2022-08-11T13:51:16.014Z,7
2022-08-11T13:52:17.305Z,7
2022-08-11T13:53:18.854Z,7
2022-08-11T13:54:20.409Z,7
2022-08-11T13:55:53.166Z,8
2022-08-11T13:56:54.443Z,10
2022-08-11T13:58:41.154Z,11
2022-08-11T13:59:56.304Z,11
2022-08-11T14:02:30.822Z,11
2022-08-11T14:04:32.688Z,10
2022-08-11T14:05:34.510Z,9
2022-08-11T14:06:36.599Z,10
2022-08-11T14:07:39.220Z,10
2022-08-11T14:08:47.792Z,10
2022-08-11T14:09:57.425Z,11
2022-08-11T14:10:58.940Z,12
2022-08-11T14:12:24.873Z,12
2022-08-11T14:13:26.063Z,11
2022-08-11T14:14:27.853Z,10
2022-08-11T14:15:29.364Z,9
2022-08-11T14:16:30.911Z,8
2022-08-11T14:17:49.489Z,7
2022-08-11T14:18:52.607Z,7
2022-08-11T14:19:54.165Z,7
2022-08-11T14:20:55.428Z,6
2022-08-11T14:21:56.706Z,6
2022-08-11T14:22:57.813Z,7
2022-08-11T14:24:01.933Z,7
2022-08-11T14:25:03.767Z,8
2022-08-11T14:26:04.772Z,8
2022-08-11T14:27:06.045Z,7
2022-08-11T14:28:46.036Z,7
2022-08-11T14:29:49.788Z,7
2022-08-11T14:30:51.868Z,6
2022-08-11T14:32:03.107Z,7
2022-08-11T14:33:21.581Z,7
2022-08-11T14:34:22.863Z,7
2022-08-11T14:35:23.878Z,7
2022-08-11T14:36:25.440Z,6
2022-08-11T14:37:28.046Z,6
2022-08-11T14:38:29.011Z,5
2022-08-11T14:39:33.573Z,5
2022-08-11T14:40:35.412Z,6
2022-08-11T14:41:36.479Z,6
2022-08-11T14:43:10.890Z,7
2022-08-11T14:44:15.768Z,8
2022-08-11T14:45:17.339Z,8
2022-08-11T14:46:18.687Z,8
2022-08-11T14:47:26.189Z,9
2022-08-11T14:48:27.261Z,9
2022-08-11T14:49:28.279Z,9
2022-08-11T14:50:30.153Z,8
2022-08-11T14:51:31.909Z,8
2022-08-11T14:52:33.203Z,8
2022-08-11T14:53:34.463Z,8
2022-08-11T14:54:35.992Z,8
2022-08-11T14:55:37.587Z,7
2022-08-11T14:56:38.682Z,6
2022-08-11T14:57:57.595Z,6
2022-08-11T14:58:58.889Z,6
2022-08-11T15:00:00.185Z,7
2022-08-11T15:01:03.130Z,9
2022-08-11T15:02:04.848Z,8
2022-08-11T15:03:06.409Z,7
2022-08-11T15:04:37.283Z,6
2022-08-11T15:05:39.100Z,6
2022-08-11T15:06:40.386Z,8
2022-08-11T15:07:42.123Z,8
2022-08-11T15:08:43.115Z,8
2022-08-11T15:10:13.971Z,7
2022-08-11T15:11:16.552Z,7
2022-08-11T15:12:33.859Z,7
2022-08-11T15:13:35.687Z,7
2022-08-11T15:14:36.641Z,7
2022-08-11T15:15:37.642Z,6
2022-08-11T15:16:38.926Z,6
2022-08-11T15:17:44.160Z,6
2022-08-11T15:18:50.076Z,5
2022-08-11T15:19:51.654Z,6
2022-08-11T15:20:54.257Z,5
2022-08-11T15:21:55.233Z,6
2022-08-11T15:22:56.269Z,8
2022-08-11T15:23:57.259Z,8
2022-08-11T15:24:59.079Z,8
2022-08-11T15:26:00.653Z,8
2022-08-11T15:27:01.912Z,7
2022-08-11T15:28:02.917Z,8
2022-08-11T15:29:04.514Z,8
2022-08-11T15:30:05.807Z,7
2022-08-11T15:31:06.804Z,7
2022-08-11T15:32:08.347Z,6
2022-08-11T15:33:10.338Z,6
2022-08-11T15:34:18.525Z,7
2022-08-11T15:35:20.667Z,6
2022-08-11T15:36:22.533Z,6
2022-08-11T15:37:23.570Z,6
2022-08-11T15:38:24.845Z,6
2022-08-11T15:39:26.051Z,6
2022-08-11T15:40:33.813Z,7
2022-08-11T15:41:38.926Z,6
2022-08-11T15:42:43.203Z,6
2022-08-11T15:43:45.821Z,6
2022-08-11T15:45:09.104Z,4
2022-08-11T15:46:10.087Z,4
2022-08-11T15:47:11.941Z,4